Time;durP1;ratioP1;P1;durP2;ratioP2;P2;SDS_P1;SDS_P2;PMS_P1;PMS_P2;Temp;Humidity;BMP_temperature;BMP_pressure;BME280_temperature;BME280_humidity;BME280_pressure;Samples;Min_cycle;Max_cycle;Signal;HPM_P1;HPM_P2
2021/02/22 00:00:55;;;;;;;50.74999;24.85;;;;;;;2.8;94.79883;95400.27;;;;
2021/02/22 00:01:57;;;;;;;50.74999;24.85;;;;;;;2.8;94.79883;95400.27;;;;
2021/02/22 00:02:57;;;;;;;50.74999;24.85;;;;;;;2.8;94.79883;95400.27;;;;
2021/02/22 00:03:58;;;;;;;50.74999;24.85;;;;;;;2.8;94.79883;95400.27;;;;
2021/02/22 00:04:59;;;;;;;80.95;24.15;;;;;;;2.72;94.49219;95417.18;;;;
2021/02/22 00:05:59;;;;;;;80.95;24.15;;;;;;;2.72;94.49219;95417.18;;;;
2021/02/22 00:07:00;;;;;;;80.95;24.15;;;;;;;2.72;94.49219;95417.18;;;;
2021/02/22 00:08:01;;;;;;;80.95;24.15;;;;;;;2.72;94.49219;95417.18;;;;
2021/02/22 00:09:03;;;;;;;80.95;24.15;;;;;;;2.72;94.49219;95417.18;;;;
2021/02/22 00:10:04;;;;;;;80.95;24.15;;;;;;;2.72;94.49219;95417.18;;;;
2021/02/22 00:11:07;;;;;;;80.95;24.15;;;;;;;2.72;94.49219;95417.18;;;;
2021/02/22 00:12:08;;;;;;;80.95;24.15;;;;;;;2.72;94.49219;95417.18;;;;
2021/02/22 00:13:09;;;;;;;80.95;24.15;;;;;;;2.72;94.49219;95417.18;;;;
2021/02/22 00:14:10;;;;;;;80.95;24.15;;;;;;;2.72;94.49219;95417.18;;;;
2021/02/22 00:15:10;;;;;;;80.95;24.15;;;;;;;2.72;94.49219;95417.18;;;;
2021/02/22 00:16:16;;;;;;;57.55;23.95;;;;;;;2.68;94.65918;95415.09;;;;
2021/02/22 00:17:16;;;;;;;57.55;23.95;;;;;;;2.68;94.65918;95415.09;;;;
2021/02/22 00:18:17;;;;;;;57.55;23.95;;;;;;;2.68;94.65918;95415.09;;;;
2021/02/22 00:19:17;;;;;;;57.55;23.95;;;;;;;2.68;94.65918;95415.09;;;;
2021/02/22 00:20:18;;;;;;;57.55;23.95;;;;;;;2.68;94.65918;95415.09;;;;
2021/02/22 00:21:19;;;;;;;57.55;23.95;;;;;;;2.68;94.65918;95415.09;;;;
2021/02/22 00:22:19;;;;;;;57.55;23.95;;;;;;;2.68;94.65918;95415.09;;;;
2021/02/22 00:23:20;;;;;;;57.55;23.95;;;;;;;2.68;94.65918;95415.09;;;;
2021/02/22 00:24:21;;;;;;;57.55;23.95;;;;;;;2.68;94.65918;95415.09;;;;
2021/02/22 00:25:21;;;;;;;57.55;23.95;;;;;;;2.68;94.65918;95415.09;;;;
2021/02/22 00:26:22;;;;;;;67.55001;22.4;;;;;;;2.55;94.42188;95426.81;;;;
2021/02/22 00:27:26;;;;;;;67.55001;22.4;;;;;;;2.55;94.42188;95426.81;;;;
2021/02/22 00:28:27;;;;;;;67.55001;22.4;;;;;;;2.55;94.42188;95426.81;;;;
2021/02/22 00:29:27;;;;;;;67.55001;22.4;;;;;;;2.55;94.42188;95426.81;;;;
2021/02/22 00:30:28;;;;;;;67.55001;22.4;;;;;;;2.55;94.42188;95426.81;;;;
2021/02/22 00:31:28;;;;;;;67.55001;22.4;;;;;;;2.55;94.42188;95426.81;;;;
2021/02/22 00:32:29;;;;;;;67.55001;22.4;;;;;;;2.55;94.42188;95426.81;;;;
2021/02/22 00:33:29;;;;;;;67.55001;22.4;;;;;;;2.55;94.42188;95426.81;;;;
2021/02/22 00:34:30;;;;;;;67.55001;22.4;;;;;;;2.55;94.42188;95426.81;;;;
2021/02/22 00:35:30;;;;;;;67.55001;22.4;;;;;;;2.55;94.42188;95426.81;;;;
2021/02/22 00:36:32;;;;;;;67.55001;22.4;;;;;;;2.55;94.42188;95426.81;;;;
2021/02/22 00:37:33;;;;;;;51.3;22.55;;;;;;;2.4;94.69336;95416.64;;;;
2021/02/22 00:38:33;;;;;;;51.3;22.55;;;;;;;2.4;94.69336;95416.64;;;;
2021/02/22 00:39:34;;;;;;;51.3;22.55;;;;;;;2.4;94.69336;95416.64;;;;
2021/02/22 00:40:34;;;;;;;51.3;22.55;;;;;;;2.4;94.69336;95416.64;;;;
2021/02/22 00:41:36;;;;;;;51.3;22.55;;;;;;;2.4;94.69336;95416.64;;;;
2021/02/22 00:42:36;;;;;;;51.3;22.55;;;;;;;2.4;94.69336;95416.64;;;;
2021/02/22 00:43:37;;;;;;;51.3;22.55;;;;;;;2.4;94.69336;95416.64;;;;
2021/02/22 00:44:38;;;;;;;51.3;22.55;;;;;;;2.4;94.69336;95416.64;;;;
2021/02/22 00:45:38;;;;;;;51.3;22.55;;;;;;;2.4;94.69336;95416.64;;;;
2021/02/22 00:46:41;;;;;;;51.3;22.55;;;;;;;2.4;94.69336;95416.64;;;;
2021/02/22 00:47:41;;;;;;;64.5;23.75;;;;;;;2.32;94.89355;95428.69;;;;
2021/02/22 00:48:42;;;;;;;64.5;23.75;;;;;;;2.32;94.89355;95428.69;;;;
2021/02/22 00:49:43;;;;;;;64.5;23.75;;;;;;;2.32;94.89355;95428.69;;;;
2021/02/22 00:50:43;;;;;;;64.5;23.75;;;;;;;2.32;94.89355;95428.69;;;;
2021/02/22 00:51:44;;;;;;;64.5;23.75;;;;;;;2.32;94.89355;95428.69;;;;
2021/02/22 00:52:45;;;;;;;64.5;23.75;;;;;;;2.32;94.89355;95428.69;;;;
2021/02/22 00:53:46;;;;;;;64.5;23.75;;;;;;;2.32;94.89355;95428.69;;;;
2021/02/22 00:54:47;;;;;;;64.5;23.75;;;;;;;2.32;94.89355;95428.69;;;;
2021/02/22 00:55:47;;;;;;;64.5;23.75;;;;;;;2.32;94.89355;95428.69;;;;
2021/02/22 00:56:48;;;;;;;64.5;23.75;;;;;;;2.32;94.89355;95428.69;;;;
2021/02/22 00:57:48;;;;;;;64.5;23.75;;;;;;;2.32;94.89355;95428.69;;;;
2021/02/22 00:58:49;;;;;;;84.4;25.05;;;;;;;2.33;95.11426;95423.29;;;;
2021/02/22 00:59:50;;;;;;;84.4;25.05;;;;;;;2.33;95.11426;95423.29;;;;
2021/02/22 01:00:50;;;;;;;84.4;25.05;;;;;;;2.33;95.11426;95423.29;;;;
2021/02/22 01:01:51;;;;;;;84.4;25.05;;;;;;;2.33;95.11426;95423.29;;;;
2021/02/22 01:02:51;;;;;;;84.4;25.05;;;;;;;2.33;95.11426;95423.29;;;;
2021/02/22 01:03:52;;;;;;;84.4;25.05;;;;;;;2.33;95.11426;95423.29;;;;
2021/02/22 01:04:53;;;;;;;84.4;25.05;;;;;;;2.33;95.11426;95423.29;;;;
2021/02/22 01:05:53;;;;;;;84.4;25.05;;;;;;;2.33;95.11426;95423.29;;;;
2021/02/22 01:06:54;;;;;;;84.4;25.05;;;;;;;2.33;95.11426;95423.29;;;;
2021/02/22 01:07:54;;;;;;;84.4;25.05;;;;;;;2.33;95.11426;95423.29;;;;
2021/02/22 01:08:56;;;;;;;74.55001;22.75;;;;;;;2.32;95.0918;95452.28;;;;
2021/02/22 01:09:56;;;;;;;74.55001;22.75;;;;;;;2.32;95.0918;95452.28;;;;
2021/02/22 01:10:57;;;;;;;74.55001;22.75;;;;;;;2.32;95.0918;95452.28;;;;
2021/02/22 01:11:57;;;;;;;74.55001;22.75;;;;;;;2.32;95.0918;95452.28;;;;
2021/02/22 01:12:58;;;;;;;74.55001;22.75;;;;;;;2.32;95.0918;95452.28;;;;
2021/02/22 01:13:59;;;;;;;74.55001;22.75;;;;;;;2.32;95.0918;95452.28;;;;
2021/02/22 01:14:59;;;;;;;74.55001;22.75;;;;;;;2.32;95.0918;95452.28;;;;
2021/02/22 01:16:00;;;;;;;74.55001;22.75;;;;;;;2.32;95.0918;95452.28;;;;
2021/02/22 01:17:01;;;;;;;74.55001;22.75;;;;;;;2.32;95.0918;95452.28;;;;
2021/02/22 01:18:02;;;;;;;74.55001;22.75;;;;;;;2.32;95.0918;95452.28;;;;
2021/02/22 01:19:03;;;;;;;74.55001;22.75;;;;;;;2.32;95.0918;95452.28;;;;
2021/02/22 01:20:04;;;;;;;61.1;21.7;;;;;;;2.31;95.05859;95457.26;;;;
2021/02/22 01:21:07;;;;;;;61.1;21.7;;;;;;;2.31;95.05859;95457.26;;;;
2021/02/22 01:22:07;;;;;;;61.1;21.7;;;;;;;2.31;95.05859;95457.26;;;;
2021/02/22 01:23:08;;;;;;;61.1;21.7;;;;;;;2.31;95.05859;95457.26;;;;
2021/02/22 01:24:08;;;;;;;61.1;21.7;;;;;;;2.31;95.05859;95457.26;;;;
2021/02/22 01:25:09;;;;;;;61.1;21.7;;;;;;;2.31;95.05859;95457.26;;;;
2021/02/22 01:26:12;;;;;;;61.1;21.7;;;;;;;2.31;95.05859;95457.26;;;;
2021/02/22 01:27:13;;;;;;;61.1;21.7;;;;;;;2.31;95.05859;95457.26;;;;
2021/02/22 01:28:14;;;;;;;61.1;21.7;;;;;;;2.31;95.05859;95457.26;;;;
2021/02/22 01:29:14;;;;;;;61.1;21.7;;;;;;;2.31;95.05859;95457.26;;;;
2021/02/22 01:30:15;;;;;;;69.35001;22.6;;;;;;;2.28;94.9873;95446.56;;;;
2021/02/22 01:31:18;;;;;;;69.35001;22.6;;;;;;;2.28;94.9873;95446.56;;;;
2021/02/22 01:32:19;;;;;;;69.35001;22.6;;;;;;;2.28;94.9873;95446.56;;;;
2021/02/22 01:33:19;;;;;;;69.35001;22.6;;;;;;;2.28;94.9873;95446.56;;;;
2021/02/22 01:34:20;;;;;;;69.35001;22.6;;;;;;;2.28;94.9873;95446.56;;;;
2021/02/22 01:35:21;;;;;;;69.35001;22.6;;;;;;;2.28;94.9873;95446.56;;;;
2021/02/22 01:36:21;;;;;;;69.35001;22.6;;;;;;;2.28;94.9873;95446.56;;;;
2021/02/22 01:37:25;;;;;;;69.35001;22.6;;;;;;;2.28;94.9873;95446.56;;;;
2021/02/22 01:38:25;;;;;;;69.35001;22.6;;;;;;;2.28;94.9873;95446.56;;;;
2021/02/22 01:39:26;;;;;;;69.35001;22.6;;;;;;;2.28;94.9873;95446.56;;;;
2021/02/22 01:40:27;;;;;;;69.35001;22.6;;;;;;;2.28;94.9873;95446.56;;;;
2021/02/22 01:41:28;;;;;;;60.44999;21.2;;;;;;;2.2;94.93164;95457.2;;;;
2021/02/22 01:42:29;;;;;;;60.44999;21.2;;;;;;;2.2;94.93164;95457.2;;;;
2021/02/22 01:43:29;;;;;;;60.44999;21.2;;;;;;;2.2;94.93164;95457.2;;;;
2021/02/22 01:44:30;;;;;;;60.44999;21.2;;;;;;;2.2;94.93164;95457.2;;;;
2021/02/22 01:45:30;;;;;;;60.44999;21.2;;;;;;;2.2;94.93164;95457.2;;;;
2021/02/22 01:46:31;;;;;;;60.44999;21.2;;;;;;;2.2;94.93164;95457.2;;;;
2021/02/22 01:47:31;;;;;;;60.44999;21.2;;;;;;;2.2;94.93164;95457.2;;;;
2021/02/22 01:48:32;;;;;;;60.44999;21.2;;;;;;;2.2;94.93164;95457.2;;;;
2021/02/22 01:49:33;;;;;;;60.44999;21.2;;;;;;;2.2;94.93164;95457.2;;;;
2021/02/22 01:50:34;;;;;;;60.44999;21.2;;;;;;;2.2;94.93164;95457.2;;;;
2021/02/22 01:51:34;;;;;;;43.90001;19.8;;;;;;;2.12;95.04785;95469.25;;;;
2021/02/22 01:52:35;;;;;;;43.90001;19.8;;;;;;;2.12;95.04785;95469.25;;;;
2021/02/22 01:53:36;;;;;;;43.90001;19.8;;;;;;;2.12;95.04785;95469.25;;;;
2021/02/22 01:54:37;;;;;;;43.90001;19.8;;;;;;;2.12;95.04785;95469.25;;;;
2021/02/22 01:55:38;;;;;;;43.90001;19.8;;;;;;;2.12;95.04785;95469.25;;;;
2021/02/22 01:56:38;;;;;;;43.90001;19.8;;;;;;;2.12;95.04785;95469.25;;;;
2021/02/22 01:57:39;;;;;;;43.90001;19.8;;;;;;;2.12;95.04785;95469.25;;;;
2021/02/22 01:58:40;;;;;;;43.90001;19.8;;;;;;;2.12;95.04785;95469.25;;;;
2021/02/22 01:59:42;;;;;;;43.90001;19.8;;;;;;;2.12;95.04785;95469.25;;;;
2021/02/22 02:00:42;;;;;;;43.90001;19.8;;;;;;;2.12;95.04785;95469.25;;;;
2021/02/22 02:01:43;;;;;;;43.90001;19.8;;;;;;;2.12;95.04785;95469.25;;;;
2021/02/22 02:02:44;;;;;;;50.8;22.15;;;;;;;2.1;95.22949;95469.55;;;;
2021/02/22 02:03:44;;;;;;;50.8;22.15;;;;;;;2.1;95.22949;95469.55;;;;
2021/02/22 02:04:45;;;;;;;50.8;22.15;;;;;;;2.1;95.22949;95469.55;;;;
2021/02/22 02:05:45;;;;;;;50.8;22.15;;;;;;;2.1;95.22949;95469.55;;;;
2021/02/22 02:06:46;;;;;;;50.8;22.15;;;;;;;2.1;95.22949;95469.55;;;;
2021/02/22 02:07:47;;;;;;;50.8;22.15;;;;;;;2.1;95.22949;95469.55;;;;
2021/02/22 02:08:47;;;;;;;50.8;22.15;;;;;;;2.1;95.22949;95469.55;;;;
2021/02/22 02:09:48;;;;;;;50.8;22.15;;;;;;;2.1;95.22949;95469.55;;;;
2021/02/22 02:10:49;;;;;;;50.8;22.15;;;;;;;2.1;95.22949;95469.55;;;;
2021/02/22 02:11:50;;;;;;;50.8;22.15;;;;;;;2.1;95.22949;95469.55;;;;
2021/02/22 02:12:50;;;;;;;50.60001;22.45;;;;;;;2.1;95.35645;95478.34;;;;
2021/02/22 02:13:51;;;;;;;50.60001;22.45;;;;;;;2.1;95.35645;95478.34;;;;
2021/02/22 02:14:52;;;;;;;50.60001;22.45;;;;;;;2.1;95.35645;95478.34;;;;
2021/02/22 02:15:52;;;;;;;50.60001;22.45;;;;;;;2.1;95.35645;95478.34;;;;
2021/02/22 02:16:53;;;;;;;50.60001;22.45;;;;;;;2.1;95.35645;95478.34;;;;
2021/02/22 02:17:53;;;;;;;50.60001;22.45;;;;;;;2.1;95.35645;95478.34;;;;
2021/02/22 02:18:54;;;;;;;50.60001;22.45;;;;;;;2.1;95.35645;95478.34;;;;
2021/02/22 02:19:55;;;;;;;50.60001;22.45;;;;;;;2.1;95.35645;95478.34;;;;
2021/02/22 02:20:55;;;;;;;50.60001;22.45;;;;;;;2.1;95.35645;95478.34;;;;
2021/02/22 02:21:56;;;;;;;50.60001;22.45;;;;;;;2.1;95.35645;95478.34;;;;
2021/02/22 02:22:56;;;;;;;50.60001;22.45;;;;;;;2.1;95.35645;95478.34;;;;
2021/02/22 02:23:59;;;;;;;50.8;20.25;;;;;;;2.08;95.35059;95482.2;;;;
2021/02/22 02:24:59;;;;;;;50.8;20.25;;;;;;;2.08;95.35059;95482.2;;;;
2021/02/22 02:26:00;;;;;;;50.8;20.25;;;;;;;2.08;95.35059;95482.2;;;;
2021/02/22 02:27:01;;;;;;;50.8;20.25;;;;;;;2.08;95.35059;95482.2;;;;
2021/02/22 02:28:01;;;;;;;50.8;20.25;;;;;;;2.08;95.35059;95482.2;;;;
2021/02/22 02:29:05;;;;;;;50.8;20.25;;;;;;;2.08;95.35059;95482.2;;;;
2021/02/22 02:30:06;;;;;;;50.8;20.25;;;;;;;2.08;95.35059;95482.2;;;;
2021/02/22 02:31:10;;;;;;;50.8;20.25;;;;;;;2.08;95.35059;95482.2;;;;
2021/02/22 02:32:10;;;;;;;50.8;20.25;;;;;;;2.08;95.35059;95482.2;;;;
2021/02/22 02:33:11;;;;;;;50.8;20.25;;;;;;;2.08;95.35059;95482.2;;;;
2021/02/22 02:34:12;;;;;;;71.05;20.3;;;;;;;1.99;95.26855;95486.85;;;;
2021/02/22 02:35:12;;;;;;;71.05;20.3;;;;;;;1.99;95.26855;95486.85;;;;
2021/02/22 02:36:14;;;;;;;71.05;20.3;;;;;;;1.99;95.26855;95486.85;;;;
2021/02/22 02:37:14;;;;;;;71.05;20.3;;;;;;;1.99;95.26855;95486.85;;;;
2021/02/22 02:38:15;;;;;;;71.05;20.3;;;;;;;1.99;95.26855;95486.85;;;;
2021/02/22 02:39:16;;;;;;;71.05;20.3;;;;;;;1.99;95.26855;95486.85;;;;
2021/02/22 02:40:17;;;;;;;71.05;20.3;;;;;;;1.99;95.26855;95486.85;;;;
2021/02/22 02:41:20;;;;;;;71.05;20.3;;;;;;;1.99;95.26855;95486.85;;;;
2021/02/22 02:42:20;;;;;;;71.05;20.3;;;;;;;1.99;95.26855;95486.85;;;;
2021/02/22 02:43:22;;;;;;;71.05;20.3;;;;;;;1.99;95.26855;95486.85;;;;
2021/02/22 02:44:22;;;;;;;71.05;20.3;;;;;;;1.99;95.26855;95486.85;;;;
2021/02/22 02:45:25;;;;;;;51.95;19.4;;;;;;;1.96;95.49219;95492.02;;;;
2021/02/22 02:46:28;;;;;;;51.95;19.4;;;;;;;1.96;95.49219;95492.02;;;;
2021/02/22 02:47:28;;;;;;;51.95;19.4;;;;;;;1.96;95.49219;95492.02;;;;
2021/02/22 02:48:29;;;;;;;51.95;19.4;;;;;;;1.96;95.49219;95492.02;;;;
2021/02/22 02:49:30;;;;;;;51.95;19.4;;;;;;;1.96;95.49219;95492.02;;;;
2021/02/22 02:50:30;;;;;;;51.95;19.4;;;;;;;1.96;95.49219;95492.02;;;;
2021/02/22 02:51:31;;;;;;;51.95;19.4;;;;;;;1.96;95.49219;95492.02;;;;
2021/02/22 02:52:32;;;;;;;51.95;19.4;;;;;;;1.96;95.49219;95492.02;;;;
2021/02/22 02:53:33;;;;;;;51.95;19.4;;;;;;;1.96;95.49219;95492.02;;;;
2021/02/22 02:54:34;;;;;;;51.95;19.4;;;;;;;1.96;95.49219;95492.02;;;;
2021/02/22 02:55:34;;;;;;;206.55;24.15;;;;;;;1.88;95.36914;95516.55;;;;
2021/02/22 02:56:37;;;;;;;206.55;24.15;;;;;;;1.88;95.36914;95516.55;;;;
2021/02/22 02:57:38;;;;;;;206.55;24.15;;;;;;;1.88;95.36914;95516.55;;;;
2021/02/22 02:58:40;;;;;;;206.55;24.15;;;;;;;1.88;95.36914;95516.55;;;;
2021/02/22 02:59:41;;;;;;;206.55;24.15;;;;;;;1.88;95.36914;95516.55;;;;
2021/02/22 03:00:41;;;;;;;206.55;24.15;;;;;;;1.88;95.36914;95516.55;;;;
2021/02/22 03:01:44;;;;;;;206.55;24.15;;;;;;;1.88;95.36914;95516.55;;;;
2021/02/22 03:02:44;;;;;;;206.55;24.15;;;;;;;1.88;95.36914;95516.55;;;;
2021/02/22 03:03:45;;;;;;;206.55;24.15;;;;;;;1.88;95.36914;95516.55;;;;
2021/02/22 03:04:46;;;;;;;206.55;24.15;;;;;;;1.88;95.36914;95516.55;;;;
2021/02/22 03:05:47;;;;;;;206.55;24.15;;;;;;;1.88;95.36914;95516.55;;;;
2021/02/22 03:06:48;;;;;;;39.95;20.65;;;;;;;1.78;95.61914;95525.17;;;;
2021/02/22 03:07:48;;;;;;;39.95;20.65;;;;;;;1.78;95.61914;95525.17;;;;
2021/02/22 03:08:49;;;;;;;39.95;20.65;;;;;;;1.78;95.61914;95525.17;;;;
2021/02/22 03:09:50;;;;;;;39.95;20.65;;;;;;;1.78;95.61914;95525.17;;;;
2021/02/22 03:10:50;;;;;;;39.95;20.65;;;;;;;1.78;95.61914;95525.17;;;;
2021/02/22 03:11:52;;;;;;;39.95;20.65;;;;;;;1.78;95.61914;95525.17;;;;
2021/02/22 03:12:52;;;;;;;39.95;20.65;;;;;;;1.78;95.61914;95525.17;;;;
2021/02/22 03:13:54;;;;;;;39.95;20.65;;;;;;;1.78;95.61914;95525.17;;;;
2021/02/22 03:14:55;;;;;;;39.95;20.65;;;;;;;1.78;95.61914;95525.17;;;;
2021/02/22 03:15:55;;;;;;;39.95;20.65;;;;;;;1.78;95.61914;95525.17;;;;
2021/02/22 03:16:56;;;;;;;119.15;22.2;;;;;;;1.77;95.86621;95544.83;;;;
2021/02/22 03:17:56;;;;;;;119.15;22.2;;;;;;;1.77;95.86621;95544.83;;;;
2021/02/22 03:18:57;;;;;;;119.15;22.2;;;;;;;1.77;95.86621;95544.83;;;;
2021/02/22 03:19:58;;;;;;;119.15;22.2;;;;;;;1.77;95.86621;95544.83;;;;
2021/02/22 03:20:58;;;;;;;119.15;22.2;;;;;;;1.77;95.86621;95544.83;;;;
2021/02/22 03:21:59;;;;;;;119.15;22.2;;;;;;;1.77;95.86621;95544.83;;;;
2021/02/22 03:22:59;;;;;;;119.15;22.2;;;;;;;1.77;95.86621;95544.83;;;;
2021/02/22 03:24:01;;;;;;;119.15;22.2;;;;;;;1.77;95.86621;95544.83;;;;
2021/02/22 03:25:01;;;;;;;119.15;22.2;;;;;;;1.77;95.86621;95544.83;;;;
2021/02/22 03:26:04;;;;;;;119.15;22.2;;;;;;;1.77;95.86621;95544.83;;;;
2021/02/22 03:27:04;;;;;;;119.15;22.2;;;;;;;1.77;95.86621;95544.83;;;;
2021/02/22 03:28:05;;;;;;;52.8;19.65;;;;;;;1.73;95.8457;95550.66;;;;
2021/02/22 03:29:06;;;;;;;52.8;19.65;;;;;;;1.73;95.8457;95550.66;;;;
2021/02/22 03:30:07;;;;;;;52.8;19.65;;;;;;;1.73;95.8457;95550.66;;;;
2021/02/22 03:31:09;;;;;;;52.8;19.65;;;;;;;1.73;95.8457;95550.66;;;;
2021/02/22 03:32:10;;;;;;;52.8;19.65;;;;;;;1.73;95.8457;95550.66;;;;
2021/02/22 03:33:10;;;;;;;52.8;19.65;;;;;;;1.73;95.8457;95550.66;;;;
2021/02/22 03:34:11;;;;;;;52.8;19.65;;;;;;;1.73;95.8457;95550.66;;;;
2021/02/22 03:35:11;;;;;;;52.8;19.65;;;;;;;1.73;95.8457;95550.66;;;;
2021/02/22 03:36:14;;;;;;;52.8;19.65;;;;;;;1.73;95.8457;95550.66;;;;
2021/02/22 03:37:15;;;;;;;52.8;19.65;;;;;;;1.73;95.8457;95550.66;;;;
2021/02/22 03:38:15;;;;;;;63.9;19.55;;;;;;;1.7;96.27637;95539.88;;;;
2021/02/22 03:39:15;;;;;;;63.9;19.55;;;;;;;1.7;96.27637;95539.88;;;;
2021/02/22 03:40:16;;;;;;;63.9;19.55;;;;;;;1.7;96.27637;95539.88;;;;
2021/02/22 03:41:19;;;;;;;63.9;19.55;;;;;;;1.7;96.27637;95539.88;;;;
2021/02/22 03:42:19;;;;;;;63.9;19.55;;;;;;;1.7;96.27637;95539.88;;;;
2021/02/22 03:43:20;;;;;;;63.9;19.55;;;;;;;1.7;96.27637;95539.88;;;;
2021/02/22 03:44:21;;;;;;;63.9;19.55;;;;;;;1.7;96.27637;95539.88;;;;
2021/02/22 03:45:21;;;;;;;63.9;19.55;;;;;;;1.7;96.27637;95539.88;;;;
2021/02/22 03:46:25;;;;;;;63.9;19.55;;;;;;;1.7;96.27637;95539.88;;;;
2021/02/22 03:47:25;;;;;;;63.9;19.55;;;;;;;1.7;96.27637;95539.88;;;;
2021/02/22 03:48:26;;;;;;;63.9;19.55;;;;;;;1.7;96.27637;95539.88;;;;
2021/02/22 03:49:26;;;;;;;58.1;18.15;;;;;;;1.66;96.34082;95555.94;;;;
2021/02/22 03:50:27;;;;;;;58.1;18.15;;;;;;;1.66;96.34082;95555.94;;;;
2021/02/22 03:51:27;;;;;;;58.1;18.15;;;;;;;1.66;96.34082;95555.94;;;;
2021/02/22 03:52:28;;;;;;;58.1;18.15;;;;;;;1.66;96.34082;95555.94;;;;
2021/02/22 03:53:28;;;;;;;58.1;18.15;;;;;;;1.66;96.34082;95555.94;;;;
2021/02/22 03:54:29;;;;;;;58.1;18.15;;;;;;;1.66;96.34082;95555.94;;;;
2021/02/22 03:55:29;;;;;;;58.1;18.15;;;;;;;1.66;96.34082;95555.94;;;;
2021/02/22 03:56:30;;;;;;;58.1;18.15;;;;;;;1.66;96.34082;95555.94;;;;
2021/02/22 03:57:30;;;;;;;58.1;18.15;;;;;;;1.66;96.34082;95555.94;;;;
2021/02/22 03:58:32;;;;;;;58.1;18.15;;;;;;;1.66;96.34082;95555.94;;;;
2021/02/22 03:59:33;;;;;;;58.65;18.4;;;;;;;1.59;96.37598;95578.86;;;;
2021/02/22 04:00:33;;;;;;;58.65;18.4;;;;;;;1.59;96.37598;95578.86;;;;
2021/02/22 04:01:34;;;;;;;58.65;18.4;;;;;;;1.59;96.37598;95578.86;;;;
2021/02/22 04:02:34;;;;;;;58.65;18.4;;;;;;;1.59;96.37598;95578.86;;;;
2021/02/22 04:03:36;;;;;;;58.65;18.4;;;;;;;1.59;96.37598;95578.86;;;;
2021/02/22 04:04:36;;;;;;;58.65;18.4;;;;;;;1.59;96.37598;95578.86;;;;
2021/02/22 04:05:37;;;;;;;58.65;18.4;;;;;;;1.59;96.37598;95578.86;;;;
2021/02/22 04:06:37;;;;;;;58.65;18.4;;;;;;;1.59;96.37598;95578.86;;;;
2021/02/22 04:07:38;;;;;;;58.65;18.4;;;;;;;1.59;96.37598;95578.86;;;;
2021/02/22 04:08:38;;;;;;;58.65;18.4;;;;;;;1.59;96.37598;95578.86;;;;
2021/02/22 04:09:39;;;;;;;58.65;18.4;;;;;;;1.59;96.37598;95578.86;;;;
2021/02/22 04:10:39;;;;;;;32.15;16.6;;;;;;;1.51;96.48633;95581.96;;;;
2021/02/22 04:11:40;;;;;;;32.15;16.6;;;;;;;1.51;96.48633;95581.96;;;;
2021/02/22 04:12:41;;;;;;;32.15;16.6;;;;;;;1.51;96.48633;95581.96;;;;
2021/02/22 04:13:42;;;;;;;32.15;16.6;;;;;;;1.51;96.48633;95581.96;;;;
2021/02/22 04:14:42;;;;;;;32.15;16.6;;;;;;;1.51;96.48633;95581.96;;;;
2021/02/22 04:15:43;;;;;;;32.15;16.6;;;;;;;1.51;96.48633;95581.96;;;;
2021/02/22 04:16:43;;;;;;;32.15;16.6;;;;;;;1.51;96.48633;95581.96;;;;
2021/02/22 04:17:44;;;;;;;32.15;16.6;;;;;;;1.51;96.48633;95581.96;;;;
2021/02/22 04:18:44;;;;;;;32.15;16.6;;;;;;;1.51;96.48633;95581.96;;;;
2021/02/22 04:19:45;;;;;;;32.15;16.6;;;;;;;1.51;96.48633;95581.96;;;;
2021/02/22 04:20:45;;;;;;;46.00001;16.45;;;;;;;1.44;96.49902;95591.74;;;;
2021/02/22 04:21:46;;;;;;;46.00001;16.45;;;;;;;1.44;96.49902;95591.74;;;;
2021/02/22 04:22:47;;;;;;;46.00001;16.45;;;;;;;1.44;96.49902;95591.74;;;;
2021/02/22 04:23:50;;;;;;;46.00001;16.45;;;;;;;1.44;96.49902;95591.74;;;;
2021/02/22 04:24:50;;;;;;;46.00001;16.45;;;;;;;1.44;96.49902;95591.74;;;;
2021/02/22 04:25:51;;;;;;;46.00001;16.45;;;;;;;1.44;96.49902;95591.74;;;;
2021/02/22 04:26:51;;;;;;;46.00001;16.45;;;;;;;1.44;96.49902;95591.74;;;;
2021/02/22 04:27:52;;;;;;;46.00001;16.45;;;;;;;1.44;96.49902;95591.74;;;;
2021/02/22 04:28:52;;;;;;;46.00001;16.45;;;;;;;1.44;96.49902;95591.74;;;;
2021/02/22 04:29:53;;;;;;;46.00001;16.45;;;;;;;1.44;96.49902;95591.74;;;;
2021/02/22 04:30:53;;;;;;;46.00001;16.45;;;;;;;1.44;96.49902;95591.74;;;;
2021/02/22 04:31:54;;;;;;;33.2;16.35;;;;;;;1.32;96.63965;95582.39;;;;
2021/02/22 04:32:55;;;;;;;33.2;16.35;;;;;;;1.32;96.63965;95582.39;;;;
2021/02/22 04:33:55;;;;;;;33.2;16.35;;;;;;;1.32;96.63965;95582.39;;;;
2021/02/22 04:34:56;;;;;;;33.2;16.35;;;;;;;1.32;96.63965;95582.39;;;;
2021/02/22 04:35:57;;;;;;;33.2;16.35;;;;;;;1.32;96.63965;95582.39;;;;
2021/02/22 04:36:57;;;;;;;33.2;16.35;;;;;;;1.32;96.63965;95582.39;;;;
2021/02/22 04:37:58;;;;;;;33.2;16.35;;;;;;;1.32;96.63965;95582.39;;;;
2021/02/22 04:38:59;;;;;;;33.2;16.35;;;;;;;1.32;96.63965;95582.39;;;;
2021/02/22 04:39:59;;;;;;;33.2;16.35;;;;;;;1.32;96.63965;95582.39;;;;
2021/02/22 04:41:00;;;;;;;33.2;16.35;;;;;;;1.32;96.63965;95582.39;;;;
2021/02/22 04:42:01;;;;;;;82.74999;16.4;;;;;;;1.2;96.65332;95587.76;;;;
2021/02/22 04:43:01;;;;;;;82.74999;16.4;;;;;;;1.2;96.65332;95587.76;;;;
2021/02/22 04:44:02;;;;;;;82.74999;16.4;;;;;;;1.2;96.65332;95587.76;;;;
2021/02/22 04:45:03;;;;;;;82.74999;16.4;;;;;;;1.2;96.65332;95587.76;;;;
2021/02/22 04:46:05;;;;;;;82.74999;16.4;;;;;;;1.2;96.65332;95587.76;;;;
2021/02/22 04:47:06;;;;;;;82.74999;16.4;;;;;;;1.2;96.65332;95587.76;;;;
2021/02/22 04:48:06;;;;;;;82.74999;16.4;;;;;;;1.2;96.65332;95587.76;;;;
2021/02/22 04:49:08;;;;;;;82.74999;16.4;;;;;;;1.2;96.65332;95587.76;;;;
2021/02/22 04:50:08;;;;;;;82.74999;16.4;;;;;;;1.2;96.65332;95587.76;;;;
2021/02/22 04:51:10;;;;;;;82.74999;16.4;;;;;;;1.2;96.65332;95587.76;;;;
2021/02/22 04:52:11;;;;;;;82.74999;16.4;;;;;;;1.2;96.65332;95587.76;;;;
2021/02/22 04:53:11;;;;;;;43.9;16.25;;;;;;;1.15;96.85938;95603.48;;;;
2021/02/22 04:54:12;;;;;;;43.9;16.25;;;;;;;1.15;96.85938;95603.48;;;;
2021/02/22 04:55:12;;;;;;;43.9;16.25;;;;;;;1.15;96.85938;95603.48;;;;
2021/02/22 04:56:14;;;;;;;43.9;16.25;;;;;;;1.15;96.85938;95603.48;;;;
2021/02/22 04:57:15;;;;;;;43.9;16.25;;;;;;;1.15;96.85938;95603.48;;;;
2021/02/22 04:58:15;;;;;;;43.9;16.25;;;;;;;1.15;96.85938;95603.48;;;;
2021/02/22 04:59:15;;;;;;;43.9;16.25;;;;;;;1.15;96.85938;95603.48;;;;
2021/02/22 05:00:16;;;;;;;43.9;16.25;;;;;;;1.15;96.85938;95603.48;;;;
2021/02/22 05:01:17;;;;;;;43.9;16.25;;;;;;;1.15;96.85938;95603.48;;;;
2021/02/22 05:02:18;;;;;;;43.9;16.25;;;;;;;1.15;96.85938;95603.48;;;;
2021/02/22 05:03:19;;;;;;;28.9;15.4;;;;;;;1.12;96.97949;95592.67;;;;
2021/02/22 05:04:19;;;;;;;28.9;15.4;;;;;;;1.12;96.97949;95592.67;;;;
2021/02/22 05:05:20;;;;;;;28.9;15.4;;;;;;;1.12;96.97949;95592.67;;;;
2021/02/22 05:06:20;;;;;;;28.9;15.4;;;;;;;1.12;96.97949;95592.67;;;;
2021/02/22 05:07:21;;;;;;;28.9;15.4;;;;;;;1.12;96.97949;95592.67;;;;
2021/02/22 05:08:22;;;;;;;28.9;15.4;;;;;;;1.12;96.97949;95592.67;;;;
2021/02/22 05:09:23;;;;;;;28.9;15.4;;;;;;;1.12;96.97949;95592.67;;;;
2021/02/22 05:10:23;;;;;;;28.9;15.4;;;;;;;1.12;96.97949;95592.67;;;;
2021/02/22 05:11:24;;;;;;;28.9;15.4;;;;;;;1.12;96.97949;95592.67;;;;
2021/02/22 05:12:24;;;;;;;28.9;15.4;;;;;;;1.12;96.97949;95592.67;;;;
2021/02/22 05:13:25;;;;;;;28.9;15.4;;;;;;;1.12;96.97949;95592.67;;;;
2021/02/22 05:14:25;;;;;;;36.49999;17.3;;;;;;;1.04;96.98145;95601.1;;;;
2021/02/22 05:15:26;;;;;;;36.49999;17.3;;;;;;;1.04;96.98145;95601.1;;;;
2021/02/22 05:16:26;;;;;;;36.49999;17.3;;;;;;;1.04;96.98145;95601.1;;;;
2021/02/22 05:17:27;;;;;;;36.49999;17.3;;;;;;;1.04;96.98145;95601.1;;;;
2021/02/22 05:18:28;;;;;;;36.49999;17.3;;;;;;;1.04;96.98145;95601.1;;;;
2021/02/22 05:19:28;;;;;;;36.49999;17.3;;;;;;;1.04;96.98145;95601.1;;;;
2021/02/22 05:20:29;;;;;;;36.49999;17.3;;;;;;;1.04;96.98145;95601.1;;;;
2021/02/22 05:21:30;;;;;;;36.49999;17.3;;;;;;;1.04;96.98145;95601.1;;;;
2021/02/22 05:22:30;;;;;;;36.49999;17.3;;;;;;;1.04;96.98145;95601.1;;;;
2021/02/22 05:23:31;;;;;;;36.49999;17.3;;;;;;;1.04;96.98145;95601.1;;;;
2021/02/22 05:24:31;;;;;;;36.49999;17.3;;;;;;;1.04;96.98145;95601.1;;;;
2021/02/22 05:25:32;;;;;;;28.05;17;;;;;;;0.98;97.10156;95605.35;;;;
2021/02/22 05:26:33;;;;;;;28.05;17;;;;;;;0.98;97.10156;95605.35;;;;
2021/02/22 05:27:33;;;;;;;28.05;17;;;;;;;0.98;97.10156;95605.35;;;;
2021/02/22 05:28:34;;;;;;;28.05;17;;;;;;;0.98;97.10156;95605.35;;;;
2021/02/22 05:29:34;;;;;;;28.05;17;;;;;;;0.98;97.10156;95605.35;;;;
2021/02/22 05:30:35;;;;;;;28.05;17;;;;;;;0.98;97.10156;95605.35;;;;
2021/02/22 05:31:36;;;;;;;28.05;17;;;;;;;0.98;97.10156;95605.35;;;;
2021/02/22 05:32:36;;;;;;;28.05;17;;;;;;;0.98;97.10156;95605.35;;;;
2021/02/22 05:33:38;;;;;;;28.05;17;;;;;;;0.98;97.10156;95605.35;;;;
2021/02/22 05:34:39;;;;;;;28.05;17;;;;;;;0.98;97.10156;95605.35;;;;
2021/02/22 05:35:39;;;;;;;25.95;15.45;;;;;;;0.93;97.47559;95633.35;;;;
2021/02/22 05:36:40;;;;;;;25.95;15.45;;;;;;;0.93;97.47559;95633.35;;;;
2021/02/22 05:37:40;;;;;;;25.95;15.45;;;;;;;0.93;97.47559;95633.35;;;;
2021/02/22 05:38:41;;;;;;;25.95;15.45;;;;;;;0.93;97.47559;95633.35;;;;
2021/02/22 05:39:41;;;;;;;25.95;15.45;;;;;;;0.93;97.47559;95633.35;;;;
2021/02/22 05:40:42;;;;;;;25.95;15.45;;;;;;;0.93;97.47559;95633.35;;;;